sensor_id;sensor_type;location;lat;lon;timestamp;pressure;altitude;pressure_sealevel;temperature;humidity
71996;BME280;59862;47.732;7.346;2022-07-29T00:01:09;97772.00;;;21.18;48.09
71996;BME280;59862;47.732;7.346;2022-07-29T00:03:37;97766.76;;;21.08;48.08
71996;BME280;59862;47.732;7.346;2022-07-29T00:06:05;97760.19;;;21.07;48.13
71996;BME280;59862;47.732;7.346;2022-07-29T00:08:32;97760.66;;;21.02;47.97
71996;BME280;59862;47.732;7.346;2022-07-29T00:11:00;97761.88;;;21.01;48.22
71996;BME280;59862;47.732;7.346;2022-07-29T00:13:27;97760.85;;;21.03;48.06
71996;BME280;59862;47.732;7.346;2022-07-29T00:15:55;97754.28;;;21.01;48.05
71996;BME280;59862;47.732;7.346;2022-07-29T00:18:22;97768.78;;;20.93;48.24
71996;BME280;59862;47.732;7.346;2022-07-29T00:20:50;97769.26;;;20.87;48.68
71996;BME280;59862;47.732;7.346;2022-07-29T00:23:17;97767.49;;;20.85;48.57
71996;BME280;59862;47.732;7.346;2022-07-29T00:25:44;97768.14;;;20.81;48.65
71996;BME280;59862;47.732;7.346;2022-07-29T00:28:12;97764.95;;;20.79;48.18
71996;BME280;59862;47.732;7.346;2022-07-29T00:30:39;97767.19;;;20.76;48.47
71996;BME280;59862;47.732;7.346;2022-07-29T00:33:09;97761.41;;;20.75;48.47
71996;BME280;59862;47.732;7.346;2022-07-29T00:35:37;97759.22;;;20.75;48.33
71996;BME280;59862;47.732;7.346;2022-07-29T00:38:13;97762.44;;;20.73;48.34
71996;BME280;59862;47.732;7.346;2022-07-29T00:40:41;97760.11;;;20.68;48.49
71996;BME280;59862;47.732;7.346;2022-07-29T00:43:10;97751.96;;;20.66;48.53
71996;BME280;59862;47.732;7.346;2022-07-29T00:45:38;97749.03;;;20.61;48.71
71996;BME280;59862;47.732;7.346;2022-07-29T00:48:06;97748.28;;;20.57;48.69
71996;BME280;59862;47.732;7.346;2022-07-29T00:50:36;97747.73;;;20.54;48.62
71996;BME280;59862;47.732;7.346;2022-07-29T00:53:05;97749.55;;;20.52;48.48
71996;BME280;59862;47.732;7.346;2022-07-29T00:55:34;97755.55;;;20.51;48.51
71996;BME280;59862;47.732;7.346;2022-07-29T00:58:02;97753.97;;;20.50;48.65
71996;BME280;59862;47.732;7.346;2022-07-29T01:00:30;97757.55;;;20.50;48.52
71996;BME280;59862;47.732;7.346;2022-07-29T01:02:58;97763.70;;;20.53;48.43
71996;BME280;59862;47.732;7.346;2022-07-29T01:05:27;97760.25;;;20.57;48.58
71996;BME280;59862;47.732;7.346;2022-07-29T01:07:57;97762.02;;;20.60;48.31
71996;BME280;59862;47.732;7.346;2022-07-29T01:10:26;97759.60;;;20.62;48.19
71996;BME280;59862;47.732;7.346;2022-07-29T01:12:56;97762.77;;;20.64;48.05
71996;BME280;59862;47.732;7.346;2022-07-29T01:15:24;97766.91;;;20.67;47.90
71996;BME280;59862;47.732;7.346;2022-07-29T01:18:44;97768.50;;;20.68;47.87
71996;BME280;59862;47.732;7.346;2022-07-29T01:29:04;97769.70;;;20.67;47.92
71996;BME280;59862;47.732;7.346;2022-07-29T01:31:42;97766.13;;;20.67;48.09
71996;BME280;59862;47.732;7.346;2022-07-29T01:34:12;97773.76;;;20.63;48.24
71996;BME280;59862;47.732;7.346;2022-07-29T01:36:48;97765.19;;;20.62;48.42
71996;BME280;59862;47.732;7.346;2022-07-29T01:39:28;97760.16;;;20.65;48.30
71996;BME280;59862;47.732;7.346;2022-07-29T01:42:08;97758.20;;;20.62;48.37
71996;BME280;59862;47.732;7.346;2022-07-29T01:44:41;97761.55;;;20.65;48.21
71996;BME280;59862;47.732;7.346;2022-07-29T01:47:12;97767.56;;;20.63;48.38
71996;BME280;59862;47.732;7.346;2022-07-29T01:49:38;97769.61;;;20.59;48.31
71996;BME280;59862;47.732;7.346;2022-07-29T01:52:16;97765.09;;;20.53;48.43
71996;BME280;59862;47.732;7.346;2022-07-29T01:54:52;97764.72;;;20.51;48.53
71996;BME280;59862;47.732;7.346;2022-07-29T01:57:18;97762.91;;;20.53;48.48
71996;BME280;59862;47.732;7.346;2022-07-29T01:59:47;97768.91;;;20.51;48.57
71996;BME280;59862;47.732;7.346;2022-07-29T02:02:16;97766.13;;;20.51;48.58
71996;BME280;59862;47.732;7.346;2022-07-29T02:04:47;97767.52;;;20.51;48.66
71996;BME280;59862;47.732;7.346;2022-07-29T02:07:18;97767.33;;;20.50;48.66
71996;BME280;59862;47.732;7.346;2022-07-29T02:09:47;97775.56;;;20.46;48.96
71996;BME280;59862;47.732;7.346;2022-07-29T02:12:18;97778.31;;;20.49;49.12
71996;BME280;59862;47.732;7.346;2022-07-29T02:14:49;97778.73;;;20.48;48.92
71996;BME280;59862;47.732;7.346;2022-07-29T02:17:27;97786.28;;;20.51;48.96
71996;BME280;59862;47.732;7.346;2022-07-29T02:19:53;97785.07;;;20.52;48.98
71996;BME280;59862;47.732;7.346;2022-07-29T02:22:21;97781.91;;;20.50;49.26
71996;BME280;59862;47.732;7.346;2022-07-29T02:24:51;97778.36;;;20.46;49.18
71996;BME280;59862;47.732;7.346;2022-07-29T02:27:20;97790.60;;;20.40;49.09
71996;BME280;59862;47.732;7.346;2022-07-29T02:29:50;97788.19;;;20.39;48.87
71996;BME280;59862;47.732;7.346;2022-07-29T02:32:21;97783.81;;;20.38;49.31
71996;BME280;59862;47.732;7.346;2022-07-29T02:34:50;97784.13;;;20.28;49.34
71996;BME280;59862;47.732;7.346;2022-07-29T02:37:19;97777.71;;;20.31;49.02
71996;BME280;59862;47.732;7.346;2022-07-29T02:39:48;97778.13;;;20.30;48.95
71996;BME280;59862;47.732;7.346;2022-07-29T02:42:18;97777.75;;;20.28;49.33
71996;BME280;59862;47.732;7.346;2022-07-29T02:44:47;97779.00;;;20.23;49.09
71996;BME280;59862;47.732;7.346;2022-07-29T02:47:41;97772.48;;;20.18;49.44
71996;BME280;59862;47.732;7.346;2022-07-29T02:50:21;97768.98;;;20.07;49.73
71996;BME280;59862;47.732;7.346;2022-07-29T02:52:57;97775.44;;;20.00;50.11
71996;BME280;59862;47.732;7.346;2022-07-29T02:58:27;97772.41;;;19.84;50.67
71996;BME280;59862;47.732;7.346;2022-07-29T03:01:03;97776.97;;;19.86;50.62
71996;BME280;59862;47.732;7.346;2022-07-29T03:03:29;97779.54;;;19.88;50.55
71996;BME280;59862;47.732;7.346;2022-07-29T03:05:58;97776.14;;;19.89;50.71
71996;BME280;59862;47.732;7.346;2022-07-29T03:08:27;97773.99;;;19.85;50.57
71996;BME280;59862;47.732;7.346;2022-07-29T03:10:56;97773.61;;;19.83;50.77
71996;BME280;59862;47.732;7.346;2022-07-29T03:13:25;97775.87;;;19.76;50.95
71996;BME280;59862;47.732;7.346;2022-07-29T03:15:54;97775.42;;;19.81;50.99
71996;BME280;59862;47.732;7.346;2022-07-29T03:18:22;97773.05;;;19.80;50.92
71996;BME280;59862;47.732;7.346;2022-07-29T03:20:50;97776.63;;;19.80;50.89
71996;BME280;59862;47.732;7.346;2022-07-29T03:23:22;97771.08;;;19.77;51.11
71996;BME280;59862;47.732;7.346;2022-07-29T03:25:50;97774.48;;;19.76;51.15
71996;BME280;59862;47.732;7.346;2022-07-29T03:28:18;97771.66;;;19.80;51.05
71996;BME280;59862;47.732;7.346;2022-07-29T03:30:46;97768.33;;;19.73;51.29
71996;BME280;59862;47.732;7.346;2022-07-29T03:33:14;97772.86;;;19.79;51.17
71996;BME280;59862;47.732;7.346;2022-07-29T03:35:42;97779.45;;;19.77;51.34
71996;BME280;59862;47.732;7.346;2022-07-29T03:38:09;97782.84;;;19.76;51.26
71996;BME280;59862;47.732;7.346;2022-07-29T03:40:46;97774.28;;;19.75;51.48
71996;BME280;59862;47.732;7.346;2022-07-29T03:43:15;97777.45;;;19.77;51.47
71996;BME280;59862;47.732;7.346;2022-07-29T03:45:47;97779.87;;;19.75;51.16
71996;BME280;59862;47.732;7.346;2022-07-29T03:48:16;97773.91;;;19.73;51.57
71996;BME280;59862;47.732;7.346;2022-07-29T03:50:44;97773.88;;;19.77;51.41
71996;BME280;59862;47.732;7.346;2022-07-29T03:53:13;97778.88;;;19.74;51.31
71996;BME280;59862;47.732;7.346;2022-07-29T03:55:45;97783.89;;;19.71;51.37
71996;BME280;59862;47.732;7.346;2022-07-29T03:58:15;97779.17;;;19.64;51.58
71996;BME280;59862;47.732;7.346;2022-07-29T04:00:44;97781.17;;;19.63;51.59
71996;BME280;59862;47.732;7.346;2022-07-29T04:03:12;97780.38;;;19.63;51.71
71996;BME280;59862;47.732;7.346;2022-07-29T04:05:41;97781.39;;;19.61;51.56
71996;BME280;59862;47.732;7.346;2022-07-29T04:08:08;97780.19;;;19.62;51.52
71996;BME280;59862;47.732;7.346;2022-07-29T04:10:36;97775.18;;;19.65;51.45
71996;BME280;59862;47.732;7.346;2022-07-29T04:13:05;97771.78;;;19.66;51.60
71996;BME280;59862;47.732;7.346;2022-07-29T04:15:32;97774.58;;;19.66;51.56
71996;BME280;59862;47.732;7.346;2022-07-29T04:18:00;97773.38;;;19.67;51.52
71996;BME280;59862;47.732;7.346;2022-07-29T04:20:27;97773.81;;;19.61;51.73
71996;BME280;59862;47.732;7.346;2022-07-29T04:22:55;97774.39;;;19.65;51.66
71996;BME280;59862;47.732;7.346;2022-07-29T04:25:22;97776.35;;;19.68;51.42
71996;BME280;59862;47.732;7.346;2022-07-29T04:27:49;97777.78;;;19.64;51.72
71996;BME280;59862;47.732;7.346;2022-07-29T04:30:30;97777.36;;;19.66;51.52
71996;BME280;59862;47.732;7.346;2022-07-29T04:33:04;97775.75;;;19.68;51.55
71996;BME280;59862;47.732;7.346;2022-07-29T04:35:29;97779.33;;;19.69;51.83
71996;BME280;59862;47.732;7.346;2022-07-29T04:37:57;97781.67;;;19.74;51.47
71996;BME280;59862;47.732;7.346;2022-07-29T04:40:24;97777.45;;;19.77;51.10
71996;BME280;59862;47.732;7.346;2022-07-29T04:42:52;97783.83;;;19.78;51.34
71996;BME280;59862;47.732;7.346;2022-07-29T04:45:19;97783.77;;;19.85;51.08
71996;BME280;59862;47.732;7.346;2022-07-29T04:47:46;97790.70;;;19.88;51.10
71996;BME280;59862;47.732;7.346;2022-07-29T04:50:14;97795.11;;;19.86;51.26
71996;BME280;59862;47.732;7.346;2022-07-29T04:52:41;97785.98;;;19.82;51.22
71996;BME280;59862;47.732;7.346;2022-07-29T04:55:09;97796.70;;;19.87;51.08
71996;BME280;59862;47.732;7.346;2022-07-29T04:57:37;97793.45;;;19.92;51.25
71996;BME280;59862;47.732;7.346;2022-07-29T05:00:05;97802.21;;;19.94;51.08
71996;BME280;59862;47.732;7.346;2022-07-29T05:02:32;97808.59;;;19.94;50.96
71996;BME280;59862;47.732;7.346;2022-07-29T05:05:00;97812.92;;;19.99;50.97
71996;BME280;59862;47.732;7.346;2022-07-29T05:07:27;97808.10;;;20.03;50.91
71996;BME280;59862;47.732;7.346;2022-07-29T05:09:55;97808.97;;;20.15;50.57
71996;BME280;59862;47.732;7.346;2022-07-29T05:12:24;97810.36;;;20.19;50.58
71996;BME280;59862;47.732;7.346;2022-07-29T05:14:52;97819.34;;;20.18;50.93
71996;BME280;59862;47.732;7.346;2022-07-29T05:17:19;97814.77;;;20.16;50.29
71996;BME280;59862;47.732;7.346;2022-07-29T05:19:47;97814.37;;;20.14;50.71
71996;BME280;59862;47.732;7.346;2022-07-29T05:22:14;97816.97;;;20.13;50.57
71996;BME280;59862;47.732;7.346;2022-07-29T05:24:41;97814.55;;;20.15;50.70
71996;BME280;59862;47.732;7.346;2022-07-29T05:27:09;97819.20;;;20.10;50.66
71996;BME280;59862;47.732;7.346;2022-07-29T05:29:36;97814.02;;;20.09;50.87
71996;BME280;59862;47.732;7.346;2022-07-29T05:32:04;97822.66;;;20.03;50.99
71996;BME280;59862;47.732;7.346;2022-07-29T05:34:32;97817.72;;;19.99;51.35
71996;BME280;59862;47.732;7.346;2022-07-29T05:37:00;97820.35;;;19.94;51.42
71996;BME280;59862;47.732;7.346;2022-07-29T05:39:27;97820.35;;;19.94;51.58
71996;BME280;59862;47.732;7.346;2022-07-29T05:41:55;97826.50;;;19.97;51.83
71996;BME280;59862;47.732;7.346;2022-07-29T05:44:22;97823.64;;;20.04;51.58
71996;BME280;59862;47.732;7.346;2022-07-29T05:46:50;97823.42;;;20.07;51.67
71996;BME280;59862;47.732;7.346;2022-07-29T05:49:17;97827.38;;;20.09;51.68
71996;BME280;59862;47.732;7.346;2022-07-29T05:51:45;97823.38;;;20.10;51.97
71996;BME280;59862;47.732;7.346;2022-07-29T05:54:13;97826.81;;;20.06;51.69
71996;BME280;59862;47.732;7.346;2022-07-29T05:56:41;97833.29;;;19.96;52.04
71996;BME280;59862;47.732;7.346;2022-07-29T05:59:08;97833.42;;;19.82;52.59
71996;BME280;59862;47.732;7.346;2022-07-29T06:01:36;97840.78;;;19.84;52.85
71996;BME280;59862;47.732;7.346;2022-07-29T06:04:05;97841.35;;;19.87;52.74
71996;BME280;59862;47.732;7.346;2022-07-29T06:06:34;97843.92;;;19.89;52.64
71996;BME280;59862;47.732;7.346;2022-07-29T06:09:03;97848.87;;;19.93;52.72
71996;BME280;59862;47.732;7.346;2022-07-29T06:11:30;97850.42;;;19.98;52.61
71996;BME280;59862;47.732;7.346;2022-07-29T06:13:58;97855.68;;;20.11;52.35
71996;BME280;59862;47.732;7.346;2022-07-29T06:16:25;97854.13;;;20.29;52.26
71996;BME280;59862;47.732;7.346;2022-07-29T06:18:52;97854.43;;;20.42;51.68
71996;BME280;59862;47.732;7.346;2022-07-29T06:21:20;97853.29;;;20.54;51.59
71996;BME280;59862;47.732;7.346;2022-07-29T06:23:47;97853.39;;;20.63;51.60
71996;BME280;59862;47.732;7.346;2022-07-29T06:26:15;97858.94;;;20.66;51.65
71996;BME280;59862;47.732;7.346;2022-07-29T06:28:42;97856.05;;;20.58;51.37
71996;BME280;59862;47.732;7.346;2022-07-29T06:31:10;97861.98;;;20.45;51.92
71996;BME280;59862;47.732;7.346;2022-07-29T06:33:37;97870.62;;;20.35;52.04
71996;BME280;59862;47.732;7.346;2022-07-29T06:36:05;97869.08;;;20.31;52.03
71996;BME280;59862;47.732;7.346;2022-07-29T06:38:33;97867.91;;;20.28;52.21
71996;BME280;59862;47.732;7.346;2022-07-29T06:41:01;97867.50;;;20.30;52.13
71996;BME280;59862;47.732;7.346;2022-07-29T06:43:35;97876.77;;;20.42;52.39
71996;BME280;59862;47.732;7.346;2022-07-29T06:46:08;97880.13;;;20.45;52.08
71996;BME280;59862;47.732;7.346;2022-07-29T06:48:36;97884.77;;;20.58;51.63
71996;BME280;59862;47.732;7.346;2022-07-29T06:51:04;97886.97;;;20.59;51.81
71996;BME280;59862;47.732;7.346;2022-07-29T06:53:33;97892.89;;;20.65;51.80
71996;BME280;59862;47.732;7.346;2022-07-29T06:56:02;97898.09;;;20.63;52.05
71996;BME280;59862;47.732;7.346;2022-07-29T06:58:30;97904.10;;;20.61;51.90
71996;BME280;59862;47.732;7.346;2022-07-29T07:01:00;97909.16;;;20.54;52.24
71996;BME280;59862;47.732;7.346;2022-07-29T07:03:28;97913.80;;;20.49;52.45
71996;BME280;59862;47.732;7.346;2022-07-29T07:05:55;97913.77;;;20.53;52.45
71996;BME280;59862;47.732;7.346;2022-07-29T07:08:23;97911.70;;;20.61;52.48
71996;BME280;59862;47.732;7.346;2022-07-29T07:10:52;97923.78;;;20.69;52.34
71996;BME280;59862;47.732;7.346;2022-07-29T07:13:19;97926.38;;;20.68;52.22
71996;BME280;59862;47.732;7.346;2022-07-29T07:15:47;97926.38;;;20.68;52.43
71996;BME280;59862;47.732;7.346;2022-07-29T07:18:15;97931.48;;;20.58;52.53
71996;BME280;59862;47.732;7.346;2022-07-29T07:20:44;97934.20;;;20.65;52.24
71996;BME280;59862;47.732;7.346;2022-07-29T07:23:11;97932.77;;;20.69;52.28
71996;BME280;59862;47.732;7.346;2022-07-29T07:25:39;97927.01;;;20.86;52.51
71996;BME280;59862;47.732;7.346;2022-07-29T07:28:06;97927.91;;;20.95;51.38
71996;BME280;59862;47.732;7.346;2022-07-29T07:30:34;97927.40;;;21.04;51.30
71996;BME280;59862;47.732;7.346;2022-07-29T07:33:02;97924.61;;;21.19;51.20
71996;BME280;59862;47.732;7.346;2022-07-29T07:35:29;97930.14;;;21.26;50.82
71996;BME280;59862;47.732;7.346;2022-07-29T07:37:57;97922.50;;;21.30;50.58
71996;BME280;59862;47.732;7.346;2022-07-29T07:40:25;97923.61;;;21.36;50.45
71996;BME280;59862;47.732;7.346;2022-07-29T07:42:52;97926.73;;;21.42;50.46
71996;BME280;59862;47.732;7.346;2022-07-29T07:45:20;97934.69;;;21.47;50.13
71996;BME280;59862;47.732;7.346;2022-07-29T07:47:47;97933.19;;;21.54;50.25
71996;BME280;59862;47.732;7.346;2022-07-29T07:50:15;97940.11;;;21.73;49.92
71996;BME280;59862;47.732;7.346;2022-07-29T07:52:52;97929.07;;;21.62;50.18
71996;BME280;59862;47.732;7.346;2022-07-29T07:55:21;97922.50;;;21.61;50.31
71996;BME280;59862;47.732;7.346;2022-07-29T07:57:48;97922.31;;;21.60;50.63
71996;BME280;59862;47.732;7.346;2022-07-29T08:00:17;97922.95;;;21.71;50.89
71996;BME280;59862;47.732;7.346;2022-07-29T08:02:44;97930.13;;;21.72;51.11
71996;BME280;59862;47.732;7.346;2022-07-29T08:05:12;97932.23;;;21.91;50.39
71996;BME280;59862;47.732;7.346;2022-07-29T08:07:42;97927.31;;;21.99;49.81
71996;BME280;59862;47.732;7.346;2022-07-29T08:10:11;97917.18;;;22.08;50.24
71996;BME280;59862;47.732;7.346;2022-07-29T08:12:39;97916.91;;;22.26;49.28
71996;BME280;59862;47.732;7.346;2022-07-29T08:15:07;97919.45;;;22.40;49.17
71996;BME280;59862;47.732;7.346;2022-07-29T08:17:35;97916.38;;;22.66;47.86
71996;BME280;59862;47.732;7.346;2022-07-29T08:20:03;97928.03;;;22.76;48.01
71996;BME280;59862;47.732;7.346;2022-07-29T08:22:31;97925.12;;;23.03;47.39
71996;BME280;59862;47.732;7.346;2022-07-29T08:24:58;97934.32;;;23.24;47.55
71996;BME280;59862;47.732;7.346;2022-07-29T08:27:26;97934.47;;;23.17;47.00
71996;BME280;59862;47.732;7.346;2022-07-29T08:29:55;97941.13;;;22.95;47.95
71996;BME280;59862;47.732;7.346;2022-07-29T08:32:23;97948.34;;;22.84;48.03
71996;BME280;59862;47.732;7.346;2022-07-29T08:34:51;97950.67;;;22.74;47.90
71996;BME280;59862;47.732;7.346;2022-07-29T08:37:19;97949.81;;;22.81;47.90
71996;BME280;59862;47.732;7.346;2022-07-29T08:39:47;97942.42;;;23.10;48.08
71996;BME280;59862;47.732;7.346;2022-07-29T08:42:15;97945.75;;;23.53;47.12
71996;BME280;59862;47.732;7.346;2022-07-29T08:44:43;97945.37;;;23.62;45.28
71996;BME280;59862;47.732;7.346;2022-07-29T08:47:15;97937.05;;;23.47;45.61
71996;BME280;59862;47.732;7.346;2022-07-29T08:49:43;97942.03;;;23.59;45.87
71996;BME280;59862;47.732;7.346;2022-07-29T08:52:13;97932.77;;;23.51;45.96
71996;BME280;59862;47.732;7.346;2022-07-29T08:54:43;97935.98;;;23.61;45.58
71996;BME280;59862;47.732;7.346;2022-07-29T08:57:14;97935.65;;;23.75;45.39
71996;BME280;59862;47.732;7.346;2022-07-29T08:59:43;97933.45;;;23.75;45.54
71996;BME280;59862;47.732;7.346;2022-07-29T09:02:18;97931.02;;;23.85;45.52
71996;BME280;59862;47.732;7.346;2022-07-29T09:04:42;97930.53;;;24.14;45.75
71996;BME280;59862;47.732;7.346;2022-07-29T09:07:18;97934.77;;;24.30;45.51
71996;BME280;59862;47.732;7.346;2022-07-29T09:09:42;97928.69;;;24.48;44.60
71996;BME280;59862;47.732;7.346;2022-07-29T09:12:11;97939.69;;;24.34;44.50
71996;BME280;59862;47.732;7.346;2022-07-29T09:14:39;97935.72;;;24.48;44.94
71996;BME280;59862;47.732;7.346;2022-07-29T09:17:08;97942.59;;;24.31;44.70
71996;BME280;59862;47.732;7.346;2022-07-29T09:19:37;97944.25;;;24.45;44.45
71996;BME280;59862;47.732;7.346;2022-07-29T09:22:06;97940.35;;;24.63;43.91
71996;BME280;59862;47.732;7.346;2022-07-29T09:24:41;97953.43;;;24.70;44.68
71996;BME280;59862;47.732;7.346;2022-07-29T09:27:18;97954.12;;;24.98;43.43
71996;BME280;59862;47.732;7.346;2022-07-29T09:29:39;97953.75;;;25.04;43.66
71996;BME280;59862;47.732;7.346;2022-07-29T09:32:09;97960.41;;;25.10;43.77
71996;BME280;59862;47.732;7.346;2022-07-29T09:34:37;97959.11;;;25.27;43.54
71996;BME280;59862;47.732;7.346;2022-07-29T09:37:05;97956.23;;;25.23;43.53
71996;BME280;59862;47.732;7.346;2022-07-29T09:39:37;97959.18;;;25.11;43.78
71996;BME280;59862;47.732;7.346;2022-07-29T09:42:07;97945.13;;;24.95;44.43
71996;BME280;59862;47.732;7.346;2022-07-29T09:44:48;97941.20;;;25.21;43.63
71996;BME280;59862;47.732;7.346;2022-07-29T09:47:18;97932.27;;;25.31;44.23
71996;BME280;59862;47.732;7.346;2022-07-29T09:49:56;97932.95;;;25.35;43.62
71996;BME280;59862;47.732;7.346;2022-07-29T09:52:28;97937.78;;;25.43;43.31
71996;BME280;59862;47.732;7.346;2022-07-29T09:55:10;97937.80;;;25.14;42.82
71996;BME280;59862;47.732;7.346;2022-07-29T09:57:38;97937.59;;;25.00;44.01
71996;BME280;59862;47.732;7.346;2022-07-29T10:00:08;97937.91;;;25.52;43.20
71996;BME280;59862;47.732;7.346;2022-07-29T10:02:38;97942.52;;;25.67;43.51
71996;BME280;59862;47.732;7.346;2022-07-29T10:05:24;97946.66;;;26.34;41.82
71996;BME280;59862;47.732;7.346;2022-07-29T10:07:56;97954.55;;;26.26;40.87
71996;BME280;59862;47.732;7.346;2022-07-29T10:10:29;97954.19;;;25.73;40.92
71996;BME280;59862;47.732;7.346;2022-07-29T10:13:03;97946.88;;;25.88;41.69
71996;BME280;59862;47.732;7.346;2022-07-29T10:15:33;97941.63;;;25.95;41.92
71996;BME280;59862;47.732;7.346;2022-07-29T10:18:02;97944.44;;;25.95;42.03
71996;BME280;59862;47.732;7.346;2022-07-29T10:20:31;97951.79;;;26.18;40.59
71996;BME280;59862;47.732;7.346;2022-07-29T10:22:58;97950.42;;;25.84;41.27
71996;BME280;59862;47.732;7.346;2022-07-29T10:25:26;97948.84;;;25.96;40.95
71996;BME280;59862;47.732;7.346;2022-07-29T10:27:54;97948.84;;;25.83;41.16
71996;BME280;59862;47.732;7.346;2022-07-29T10:30:24;97948.49;;;25.48;42.71
71996;BME280;59862;47.732;7.346;2022-07-29T10:41:43;97958.60;;;25.24;43.04
71996;BME280;59862;47.732;7.346;2022-07-29T10:44:23;97957.09;;;25.28;43.87
71996;BME280;59862;47.732;7.346;2022-07-29T10:46:53;97962.44;;;25.10;44.06
71996;BME280;59862;47.732;7.346;2022-07-29T10:49:25;97965.73;;;24.84;44.97
71996;BME280;59862;47.732;7.346;2022-07-29T10:57:16;97973.84;;;24.57;45.71
71996;BME280;59862;47.732;7.346;2022-07-29T10:59:50;97974.64;;;24.50;45.97
71996;BME280;59862;47.732;7.346;2022-07-29T11:05:08;97981.73;;;24.62;45.56
71996;BME280;59862;47.732;7.346;2022-07-29T11:07:37;97986.76;;;24.55;45.57
71996;BME280;59862;47.732;7.346;2022-07-29T11:15:15;97977.19;;;24.36;46.46
71996;BME280;59862;47.732;7.346;2022-07-29T11:20:37;97967.69;;;24.54;46.07
71996;BME280;59862;47.732;7.346;2022-07-29T11:26:18;97971.36;;;24.68;45.88
71996;BME280;59862;47.732;7.346;2022-07-29T11:29:00;97968.03;;;24.64;46.44
71996;BME280;59862;47.732;7.346;2022-07-29T11:31:38;97984.05;;;24.35;46.54
71996;BME280;59862;47.732;7.346;2022-07-29T11:34:22;97981.59;;;24.01;47.89
71996;BME280;59862;47.732;7.346;2022-07-29T11:39:39;97981.91;;;23.79;48.83
71996;BME280;59862;47.732;7.346;2022-07-29T11:45:02;97994.11;;;23.80;48.96
71996;BME280;59862;47.732;7.346;2022-07-29T11:47:34;97990.33;;;23.79;48.13
71996;BME280;59862;47.732;7.346;2022-07-29T11:50:11;97996.54;;;23.70;48.31
71996;BME280;59862;47.732;7.346;2022-07-29T11:52:41;97998.47;;;23.53;48.20
71996;BME280;59862;47.732;7.346;2022-07-29T11:55:20;98003.03;;;23.35;49.24
71996;BME280;59862;47.732;7.346;2022-07-29T11:57:59;98010.22;;;23.17;48.88
71996;BME280;59862;47.732;7.346;2022-07-29T12:00:33;98005.94;;;22.89;49.38
71996;BME280;59862;47.732;7.346;2022-07-29T12:03:02;98014.80;;;22.72;49.79
71996;BME280;59862;47.732;7.346;2022-07-29T12:05:33;98013.03;;;22.58;49.52
71996;BME280;59862;47.732;7.346;2022-07-29T12:08:15;98012.84;;;22.57;50.55
71996;BME280;59862;47.732;7.346;2022-07-29T12:10:46;98017.54;;;22.52;50.21
71996;BME280;59862;47.732;7.346;2022-07-29T12:13:15;98005.66;;;22.33;51.34
71996;BME280;59862;47.732;7.346;2022-07-29T12:15:54;98007.72;;;22.29;51.00
71996;BME280;59862;47.732;7.346;2022-07-29T12:18:24;98007.34;;;22.27;50.71
71996;BME280;59862;47.732;7.346;2022-07-29T12:20:59;98009.48;;;22.31;50.36
71996;BME280;59862;47.732;7.346;2022-07-29T12:23:29;98014.23;;;22.34;51.23
71996;BME280;59862;47.732;7.346;2022-07-29T12:25:58;98011.49;;;22.30;50.03
71996;BME280;59862;47.732;7.346;2022-07-29T12:28:26;98010.45;;;22.21;50.23
71996;BME280;59862;47.732;7.346;2022-07-29T12:30:54;98010.39;;;22.24;50.61
71996;BME280;59862;47.732;7.346;2022-07-29T12:33:26;97999.25;;;22.32;48.93
71996;BME280;59862;47.732;7.346;2022-07-29T12:36:00;97998.58;;;22.25;49.13
71996;BME280;59862;47.732;7.346;2022-07-29T12:38:24;98005.34;;;22.39;48.61
71996;BME280;59862;47.732;7.346;2022-07-29T12:40:53;98006.20;;;22.59;47.82
71996;BME280;59862;47.732;7.346;2022-07-29T12:43:22;98008.33;;;22.75;47.92
71996;BME280;59862;47.732;7.346;2022-07-29T12:45:52;98010.46;;;22.83;46.75
71996;BME280;59862;47.732;7.346;2022-07-29T12:48:37;98011.13;;;22.90;47.36
71996;BME280;59862;47.732;7.346;2022-07-29T12:51:06;98012.77;;;23.19;47.12
71996;BME280;59862;47.732;7.346;2022-07-29T12:53:35;98019.95;;;23.00;47.93
71996;BME280;59862;47.732;7.346;2022-07-29T12:56:05;98010.36;;;23.09;47.34
71996;BME280;59862;47.732;7.346;2022-07-29T12:58:40;98017.92;;;23.32;47.17
71996;BME280;59862;47.732;7.346;2022-07-29T13:01:06;98010.47;;;23.34;47.44
71996;BME280;59862;47.732;7.346;2022-07-29T13:03:56;98009.06;;;23.46;47.43
71996;BME280;59862;47.732;7.346;2022-07-29T13:06:40;98010.75;;;23.51;47.42
71996;BME280;59862;47.732;7.346;2022-07-29T13:09:14;98000.59;;;23.77;47.37
71996;BME280;59862;47.732;7.346;2022-07-29T13:11:47;98007.75;;;23.62;46.80
71996;BME280;59862;47.732;7.346;2022-07-29T13:17:08;98007.55;;;23.89;46.11
71996;BME280;59862;47.732;7.346;2022-07-29T13:22:11;98018.02;;;23.96;45.03
71996;BME280;59862;47.732;7.346;2022-07-29T13:24:49;98011.70;;;24.00;45.38
71996;BME280;59862;47.732;7.346;2022-07-29T13:27:19;98015.20;;;23.96;45.24
71996;BME280;59862;47.732;7.346;2022-07-29T13:29:47;98015.53;;;23.82;45.67
71996;BME280;59862;47.732;7.346;2022-07-29T13:32:17;98014.30;;;23.83;45.94
71996;BME280;59862;47.732;7.346;2022-07-29T13:34:45;98020.13;;;23.64;46.44
71996;BME280;59862;47.732;7.346;2022-07-29T13:37:12;98014.45;;;23.76;45.83
71996;BME280;59862;47.732;7.346;2022-07-29T13:39:40;98011.57;;;23.80;45.69
71996;BME280;59862;47.732;7.346;2022-07-29T13:42:07;98016.34;;;23.63;45.30
71996;BME280;59862;47.732;7.346;2022-07-29T13:44:35;98015.22;;;23.49;45.77
71996;BME280;59862;47.732;7.346;2022-07-29T13:47:03;98017.47;;;23.57;45.43
71996;BME280;59862;47.732;7.346;2022-07-29T13:49:31;98011.24;;;23.58;44.89
71996;BME280;59862;47.732;7.346;2022-07-29T13:51:58;98016.91;;;23.74;44.87
71996;BME280;59862;47.732;7.346;2022-07-29T13:54:25;98015.56;;;23.98;44.40
71996;BME280;59862;47.732;7.346;2022-07-29T13:56:53;98009.77;;;23.97;44.09
71996;BME280;59862;47.732;7.346;2022-07-29T13:59:20;98011.14;;;24.17;42.87
71996;BME280;59862;47.732;7.346;2022-07-29T14:01:48;97998.45;;;24.37;41.90
71996;BME280;59862;47.732;7.346;2022-07-29T14:04:15;98005.30;;;24.52;41.90